sensor_id;sensor_type;location;lat;lon;timestamp;temperature;humidity
46890;DHT22;32625;51.080;16.970;2023-10-08T00:00:33;12.80;99.90
46890;DHT22;32625;51.080;16.970;2023-10-08T00:03:14;12.80;99.90
46890;DHT22;32625;51.080;16.970;2023-10-08T00:05:41;12.70;99.90
46890;DHT22;32625;51.080;16.970;2023-10-08T00:08:09;12.60;99.90
46890;DHT22;32625;51.080;16.970;2023-10-08T00:10:37;12.70;99.90
46890;DHT22;32625;51.080;16.970;2023-10-08T00:13:11;12.70;99.90
46890;DHT22;32625;51.080;16.970;2023-10-08T00:15:40;12.70;99.90
46890;DHT22;32625;51.080;16.970;2023-10-08T00:18:21;12.70;99.90
46890;DHT22;32625;51.080;16.970;2023-10-08T00:20:50;12.70;99.90
46890;DHT22;32625;51.080;16.970;2023-10-08T00:23:43;12.60;99.90
46890;DHT22;32625;51.080;16.970;2023-10-08T00:26:16;12.60;99.90
46890;DHT22;32625;51.080;16.970;2023-10-08T00:28:48;12.60;99.90
46890;DHT22;32625;51.080;16.970;2023-10-08T00:31:18;12.50;99.90
46890;DHT22;32625;51.080;16.970;2023-10-08T00:33:46;12.40;99.90
46890;DHT22;32625;51.080;16.970;2023-10-08T00:36:13;12.40;99.90
46890;DHT22;32625;51.080;16.970;2023-10-08T00:38:47;12.60;99.90
46890;DHT22;32625;51.080;16.970;2023-10-08T00:41:17;12.50;99.90
46890;DHT22;32625;51.080;16.970;2023-10-08T00:44:07;12.50;99.90
46890;DHT22;32625;51.080;16.970;2023-10-08T00:46:35;12.50;99.90
46890;DHT22;32625;51.080;16.970;2023-10-08T00:49:20;12.30;99.90
46890;DHT22;32625;51.080;16.970;2023-10-08T00:51:53;12.30;99.90
46890;DHT22;32625;51.080;16.970;2023-10-08T00:54:36;12.30;99.90
46890;DHT22;32625;51.080;16.970;2023-10-08T00:57:29;12.30;99.90
46890;DHT22;32625;51.080;16.970;2023-10-08T00:59:57;12.30;99.90
46890;DHT22;32625;51.080;16.970;2023-10-08T01:02:29;12.30;99.90
46890;DHT22;32625;51.080;16.970;2023-10-08T01:05:12;12.30;99.90
46890;DHT22;32625;51.080;16.970;2023-10-08T01:07:46;12.30;99.90
46890;DHT22;32625;51.080;16.970;2023-10-08T01:10:15;12.30;99.90
46890;DHT22;32625;51.080;16.970;2023-10-08T01:12:47;12.30;99.90
46890;DHT22;32625;51.080;16.970;2023-10-08T01:15:28;12.30;99.90
46890;DHT22;32625;51.080;16.970;2023-10-08T01:17:57;12.30;99.90
46890;DHT22;32625;51.080;16.970;2023-10-08T01:20:28;12.30;99.90
46890;DHT22;32625;51.080;16.970;2023-10-08T01:23:08;12.30;99.90
46890;DHT22;32625;51.080;16.970;2023-10-08T01:25:55;12.20;99.90
46890;DHT22;32625;51.080;16.970;2023-10-08T01:28:38;12.20;99.90
46890;DHT22;32625;51.080;16.970;2023-10-08T01:31:05;12.20;99.90
46890;DHT22;32625;51.080;16.970;2023-10-08T01:33:34;12.20;99.90
46890;DHT22;32625;51.080;16.970;2023-10-08T01:36:14;12.20;99.90
46890;DHT22;32625;51.080;16.970;2023-10-08T01:38:41;12.20;99.90
46890;DHT22;32625;51.080;16.970;2023-10-08T01:41:16;12.20;99.90
46890;DHT22;32625;51.080;16.970;2023-10-08T01:43:46;12.20;99.90
46890;DHT22;32625;51.080;16.970;2023-10-08T01:46:13;12.30;99.90
46890;DHT22;32625;51.080;16.970;2023-10-08T01:48:42;12.30;99.90
46890;DHT22;32625;51.080;16.970;2023-10-08T01:51:12;12.20;99.90
46890;DHT22;32625;51.080;16.970;2023-10-08T01:53:53;12.10;99.90
46890;DHT22;32625;51.080;16.970;2023-10-08T01:56:21;12.20;99.90
46890;DHT22;32625;51.080;16.970;2023-10-08T01:58:48;12.10;99.90
46890;DHT22;32625;51.080;16.970;2023-10-08T02:01:20;12.10;99.90
46890;DHT22;32625;51.080;16.970;2023-10-08T02:03:47;12.00;99.90
46890;DHT22;32625;51.080;16.970;2023-10-08T02:06:15;11.80;99.90
46890;DHT22;32625;51.080;16.970;2023-10-08T02:08:42;11.70;99.90
46890;DHT22;32625;51.080;16.970;2023-10-08T02:11:09;11.80;99.90
46890;DHT22;32625;51.080;16.970;2023-10-08T02:13:37;11.80;99.90
46890;DHT22;32625;51.080;16.970;2023-10-08T02:16:04;11.70;99.90
46890;DHT22;32625;51.080;16.970;2023-10-08T02:18:31;11.70;99.90
46890;DHT22;32625;51.080;16.970;2023-10-08T02:21:00;11.80;99.90
46890;DHT22;32625;51.080;16.970;2023-10-08T02:23:27;11.90;99.90
46890;DHT22;32625;51.080;16.970;2023-10-08T02:25:54;11.90;99.90
46890;DHT22;32625;51.080;16.970;2023-10-08T02:28:21;11.90;99.90
46890;DHT22;32625;51.080;16.970;2023-10-08T02:30:51;11.80;99.90
46890;DHT22;32625;51.080;16.970;2023-10-08T02:33:18;11.90;99.90
46890;DHT22;32625;51.080;16.970;2023-10-08T02:35:47;11.90;99.90
46890;DHT22;32625;51.080;16.970;2023-10-08T02:38:17;11.90;99.90
46890;DHT22;32625;51.080;16.970;2023-10-08T02:40:44;11.80;99.90
46890;DHT22;32625;51.080;16.970;2023-10-08T02:43:15;11.80;99.90
46890;DHT22;32625;51.080;16.970;2023-10-08T02:45:43;11.90;99.90
46890;DHT22;32625;51.080;16.970;2023-10-08T02:48:14;11.70;99.90
46890;DHT22;32625;51.080;16.970;2023-10-08T02:50:43;11.80;99.90
46890;DHT22;32625;51.080;16.970;2023-10-08T02:53:14;11.80;99.90
46890;DHT22;32625;51.080;16.970;2023-10-08T02:55:50;11.70;99.90
46890;DHT22;32625;51.080;16.970;2023-10-08T02:58:17;11.70;99.90
46890;DHT22;32625;51.080;16.970;2023-10-08T03:00:48;11.60;99.90
46890;DHT22;32625;51.080;16.970;2023-10-08T03:03:16;11.60;99.90
46890;DHT22;32625;51.080;16.970;2023-10-08T03:05:47;11.60;99.90
46890;DHT22;32625;51.080;16.970;2023-10-08T03:08:15;11.60;99.90
46890;DHT22;32625;51.080;16.970;2023-10-08T03:10:48;11.60;99.90
46890;DHT22;32625;51.080;16.970;2023-10-08T03:13:16;11.50;99.90
46890;DHT22;32625;51.080;16.970;2023-10-08T03:15:43;11.40;99.90
46890;DHT22;32625;51.080;16.970;2023-10-08T03:18:24;11.30;99.90
46890;DHT22;32625;51.080;16.970;2023-10-08T03:20:51;11.20;99.90
46890;DHT22;32625;51.080;16.970;2023-10-08T03:23:19;11.30;99.90
46890;DHT22;32625;51.080;16.970;2023-10-08T03:26:02;11.20;99.90
46890;DHT22;32625;51.080;16.970;2023-10-08T03:28:44;11.30;99.90
46890;DHT22;32625;51.080;16.970;2023-10-08T03:31:11;11.20;99.90
46890;DHT22;32625;51.080;16.970;2023-10-08T03:33:45;11.20;99.90
46890;DHT22;32625;51.080;16.970;2023-10-08T03:36:16;11.10;99.90
46890;DHT22;32625;51.080;16.970;2023-10-08T03:38:49;11.10;99.90
46890;DHT22;32625;51.080;16.970;2023-10-08T03:41:23;11.10;99.90
46890;DHT22;32625;51.080;16.970;2023-10-08T03:43:59;11.00;99.90
46890;DHT22;32625;51.080;16.970;2023-10-08T03:46:33;10.90;99.90
46890;DHT22;32625;51.080;16.970;2023-10-08T03:49:15;11.00;99.90
46890;DHT22;32625;51.080;16.970;2023-10-08T03:51:52;11.00;99.90
46890;DHT22;32625;51.080;16.970;2023-10-08T03:54:20;11.10;99.90
46890;DHT22;32625;51.080;16.970;2023-10-08T03:56:57;11.10;99.90
46890;DHT22;32625;51.080;16.970;2023-10-08T03:59:24;11.10;99.90
46890;DHT22;32625;51.080;16.970;2023-10-08T04:02:01;11.10;99.90
46890;DHT22;32625;51.080;16.970;2023-10-08T04:04:42;11.10;99.90
46890;DHT22;32625;51.080;16.970;2023-10-08T04:07:17;11.10;99.90
46890;DHT22;32625;51.080;16.970;2023-10-08T04:10:00;11.00;99.90
46890;DHT22;32625;51.080;16.970;2023-10-08T04:12:47;11.10;99.90
46890;DHT22;32625;51.080;16.970;2023-10-08T04:15:19;11.00;99.90
46890;DHT22;32625;51.080;16.970;2023-10-08T04:17:46;11.00;99.90
46890;DHT22;32625;51.080;16.970;2023-10-08T04:20:18;11.10;99.90
46890;DHT22;32625;51.080;16.970;2023-10-08T04:23:09;11.00;99.90
46890;DHT22;32625;51.080;16.970;2023-10-08T04:25:48;10.90;99.90
46890;DHT22;32625;51.080;16.970;2023-10-08T04:28:22;10.90;99.90
46890;DHT22;32625;51.080;16.970;2023-10-08T04:30:49;10.80;99.90
46890;DHT22;32625;51.080;16.970;2023-10-08T04:33:18;10.80;99.90
46890;DHT22;32625;51.080;16.970;2023-10-08T04:35:46;10.80;99.90
46890;DHT22;32625;51.080;16.970;2023-10-08T04:38:20;10.80;99.90
46890;DHT22;32625;51.080;16.970;2023-10-08T04:40:52;10.80;99.90
46890;DHT22;32625;51.080;16.970;2023-10-08T04:43:23;10.70;99.90
46890;DHT22;32625;51.080;16.970;2023-10-08T04:45:58;10.70;99.90
46890;DHT22;32625;51.080;16.970;2023-10-08T04:48:26;10.70;99.90
46890;DHT22;32625;51.080;16.970;2023-10-08T04:50:57;10.80;99.90
46890;DHT22;32625;51.080;16.970;2023-10-08T04:53:36;10.80;99.90
46890;DHT22;32625;51.080;16.970;2023-10-08T04:56:06;10.80;99.90
46890;DHT22;32625;51.080;16.970;2023-10-08T04:58:47;10.80;99.90
46890;DHT22;32625;51.080;16.970;2023-10-08T05:01:15;10.80;99.90
46890;DHT22;32625;51.080;16.970;2023-10-08T05:03:53;10.90;99.90
46890;DHT22;32625;51.080;16.970;2023-10-08T05:06:31;10.80;99.90
46890;DHT22;32625;51.080;16.970;2023-10-08T05:09:12;10.90;99.90
46890;DHT22;32625;51.080;16.970;2023-10-08T05:11:52;10.90;99.90
46890;DHT22;32625;51.080;16.970;2023-10-08T05:14:24;10.70;99.90
46890;DHT22;32625;51.080;16.970;2023-10-08T05:17:10;10.70;99.90
46890;DHT22;32625;51.080;16.970;2023-10-08T05:19:39;10.60;99.90
46890;DHT22;32625;51.080;16.970;2023-10-08T05:22:22;10.70;99.90
46890;DHT22;32625;51.080;16.970;2023-10-08T05:24:56;10.60;99.90
46890;DHT22;32625;51.080;16.970;2023-10-08T05:27:33;10.50;99.90
46890;DHT22;32625;51.080;16.970;2023-10-08T05:30:17;10.60;99.90
46890;DHT22;32625;51.080;16.970;2023-10-08T05:33:04;10.60;99.90
46890;DHT22;32625;51.080;16.970;2023-10-08T05:35:45;10.70;99.90
46890;DHT22;32625;51.080;16.970;2023-10-08T05:38:18;10.80;99.90
46890;DHT22;32625;51.080;16.970;2023-10-08T05:40:58;10.80;99.90
46890;DHT22;32625;51.080;16.970;2023-10-08T05:43:33;10.70;99.90
46890;DHT22;32625;51.080;16.970;2023-10-08T05:46:07;10.70;99.90
46890;DHT22;32625;51.080;16.970;2023-10-08T05:48:58;10.80;99.90
46890;DHT22;32625;51.080;16.970;2023-10-08T05:51:38;10.70;99.90
46890;DHT22;32625;51.080;16.970;2023-10-08T05:54:32;10.70;99.90
46890;DHT22;32625;51.080;16.970;2023-10-08T05:57:00;10.70;99.90
46890;DHT22;32625;51.080;16.970;2023-10-08T05:59:47;10.80;99.90
46890;DHT22;32625;51.080;16.970;2023-10-08T06:02:20;10.80;99.90
46890;DHT22;32625;51.080;16.970;2023-10-08T06:05:02;10.80;99.90
46890;DHT22;32625;51.080;16.970;2023-10-08T06:07:44;10.80;99.90
46890;DHT22;32625;51.080;16.970;2023-10-08T06:10:15;10.90;99.90
46890;DHT22;32625;51.080;16.970;2023-10-08T06:13:07;11.00;99.90
46890;DHT22;32625;51.080;16.970;2023-10-08T06:15:44;11.00;99.90
46890;DHT22;32625;51.080;16.970;2023-10-08T06:18:16;11.10;99.90
46890;DHT22;32625;51.080;16.970;2023-10-08T06:20:45;11.10;99.90
46890;DHT22;32625;51.080;16.970;2023-10-08T06:23:15;11.10;99.90
46890;DHT22;32625;51.080;16.970;2023-10-08T06:25:52;11.10;99.90
46890;DHT22;32625;51.080;16.970;2023-10-08T06:28:24;11.20;99.90
46890;DHT22;32625;51.080;16.970;2023-10-08T06:30:55;11.20;99.90
46890;DHT22;32625;51.080;16.970;2023-10-08T06:33:24;11.20;99.90
46890;DHT22;32625;51.080;16.970;2023-10-08T06:35:58;11.20;99.90
46890;DHT22;32625;51.080;16.970;2023-10-08T06:38:45;11.20;99.90
46890;DHT22;32625;51.080;16.970;2023-10-08T06:41:17;11.30;99.90
46890;DHT22;32625;51.080;16.970;2023-10-08T06:44:06;11.30;99.90
46890;DHT22;32625;51.080;16.970;2023-10-08T06:46:33;11.30;99.90
46890;DHT22;32625;51.080;16.970;2023-10-08T06:49:07;11.40;99.90
46890;DHT22;32625;51.080;16.970;2023-10-08T06:51:40;11.30;99.90
46890;DHT22;32625;51.080;16.970;2023-10-08T06:54:11;11.40;99.90
46890;DHT22;32625;51.080;16.970;2023-10-08T06:56:41;11.40;99.90
46890;DHT22;32625;51.080;16.970;2023-10-08T06:59:14;11.40;99.90
46890;DHT22;32625;51.080;16.970;2023-10-08T07:01:43;11.50;99.90
46890;DHT22;32625;51.080;16.970;2023-10-08T07:04:13;11.50;99.90
46890;DHT22;32625;51.080;16.970;2023-10-08T07:06:42;11.40;99.90
46890;DHT22;32625;51.080;16.970;2023-10-08T07:09:13;11.40;99.90
46890;DHT22;32625;51.080;16.970;2023-10-08T07:11:50;11.40;99.90
46890;DHT22;32625;51.080;16.970;2023-10-08T07:14:26;11.20;99.90
46890;DHT22;32625;51.080;16.970;2023-10-08T07:16:56;11.30;99.90
46890;DHT22;32625;51.080;16.970;2023-10-08T07:19:29;11.30;99.90
46890;DHT22;32625;51.080;16.970;2023-10-08T07:22:08;11.30;99.90
46890;DHT22;32625;51.080;16.970;2023-10-08T07:24:56;11.30;99.90
46890;DHT22;32625;51.080;16.970;2023-10-08T07:27:25;11.30;99.90
46890;DHT22;32625;51.080;16.970;2023-10-08T07:29:58;11.30;99.90
46890;DHT22;32625;51.080;16.970;2023-10-08T07:32:29;11.30;99.90
46890;DHT22;32625;51.080;16.970;2023-10-08T07:34:57;11.30;99.90
46890;DHT22;32625;51.080;16.970;2023-10-08T07:37:43;11.50;99.90
46890;DHT22;32625;51.080;16.970;2023-10-08T07:40:12;11.40;99.90
46890;DHT22;32625;51.080;16.970;2023-10-08T07:42:40;11.50;99.90
46890;DHT22;32625;51.080;16.970;2023-10-08T07:45:07;11.60;99.90
46890;DHT22;32625;51.080;16.970;2023-10-08T07:47:34;11.50;99.90
46890;DHT22;32625;51.080;16.970;2023-10-08T07:50:01;11.60;99.90
46890;DHT22;32625;51.080;16.970;2023-10-08T07:52:38;11.40;99.90
46890;DHT22;32625;51.080;16.970;2023-10-08T07:55:05;11.20;99.90
46890;DHT22;32625;51.080;16.970;2023-10-08T07:57:32;11.20;99.90
46890;DHT22;32625;51.080;16.970;2023-10-08T08:00:00;11.10;99.90
46890;DHT22;32625;51.080;16.970;2023-10-08T08:02:46;11.10;99.90
46890;DHT22;32625;51.080;16.970;2023-10-08T08:05:13;11.20;99.90
46890;DHT22;32625;51.080;16.970;2023-10-08T08:07:44;11.20;99.90
46890;DHT22;32625;51.080;16.970;2023-10-08T08:10:16;11.20;99.90
46890;DHT22;32625;51.080;16.970;2023-10-08T08:12:45;11.20;99.90
46890;DHT22;32625;51.080;16.970;2023-10-08T08:15:12;11.30;99.90
46890;DHT22;32625;51.080;16.970;2023-10-08T08:17:43;11.30;99.90
46890;DHT22;32625;51.080;16.970;2023-10-08T08:20:11;11.30;99.90
46890;DHT22;32625;51.080;16.970;2023-10-08T08:23:01;11.20;99.90
46890;DHT22;32625;51.080;16.970;2023-10-08T08:25:38;11.30;99.90
46890;DHT22;32625;51.080;16.970;2023-10-08T08:28:24;11.30;99.90
46890;DHT22;32625;51.080;16.970;2023-10-08T08:30:51;11.30;99.90
46890;DHT22;32625;51.080;16.970;2023-10-08T08:33:22;11.20;99.90
46890;DHT22;32625;51.080;16.970;2023-10-08T08:36:02;11.20;99.90
46890;DHT22;32625;51.080;16.970;2023-10-08T08:38:32;11.30;99.90
46890;DHT22;32625;51.080;16.970;2023-10-08T08:41:06;11.40;99.90
46890;DHT22;32625;51.080;16.970;2023-10-08T08:43:34;11.40;99.90
46890;DHT22;32625;51.080;16.970;2023-10-08T08:46:03;11.40;99.90
46890;DHT22;32625;51.080;16.970;2023-10-08T08:48:34;11.50;99.90
46890;DHT22;32625;51.080;16.970;2023-10-08T08:51:02;11.60;99.90
46890;DHT22;32625;51.080;16.970;2023-10-08T08:53:29;11.60;99.90
46890;DHT22;32625;51.080;16.970;2023-10-08T08:55:56;11.60;99.90
46890;DHT22;32625;51.080;16.970;2023-10-08T08:58:24;11.50;99.90
46890;DHT22;32625;51.080;16.970;2023-10-08T09:00:52;11.30;99.90
46890;DHT22;32625;51.080;16.970;2023-10-08T09:03:19;11.30;99.90
46890;DHT22;32625;51.080;16.970;2023-10-08T09:05:46;11.30;99.90
46890;DHT22;32625;51.080;16.970;2023-10-08T09:08:18;11.30;99.90
46890;DHT22;32625;51.080;16.970;2023-10-08T09:10:46;11.30;99.90
46890;DHT22;32625;51.080;16.970;2023-10-08T09:13:20;11.40;99.90
46890;DHT22;32625;51.080;16.970;2023-10-08T09:15:50;11.40;99.90
46890;DHT22;32625;51.080;16.970;2023-10-08T09:18:23;11.40;99.90
46890;DHT22;32625;51.080;16.970;2023-10-08T09:20:50;11.40;99.50
46890;DHT22;32625;51.080;16.970;2023-10-08T09:23:17;11.50;97.80
46890;DHT22;32625;51.080;16.970;2023-10-08T09:25:46;11.40;96.70
46890;DHT22;32625;51.080;16.970;2023-10-08T09:28:17;11.40;94.80
46890;DHT22;32625;51.080;16.970;2023-10-08T09:30:45;11.50;96.70
46890;DHT22;32625;51.080;16.970;2023-10-08T09:33:13;11.50;97.80
46890;DHT22;32625;51.080;16.970;2023-10-08T09:35:42;11.50;97.10
46890;DHT22;32625;51.080;16.970;2023-10-08T09:38:10;11.60;98.10
46890;DHT22;32625;51.080;16.970;2023-10-08T09:40:40;11.60;97.40
46890;DHT22;32625;51.080;16.970;2023-10-08T09:43:10;11.70;96.60
46890;DHT22;32625;51.080;16.970;2023-10-08T09:45:49;11.80;96.60
46890;DHT22;32625;51.080;16.970;2023-10-08T09:48:20;11.80;97.30
46890;DHT22;32625;51.080;16.970;2023-10-08T09:50:52;11.90;97.50
46890;DHT22;32625;51.080;16.970;2023-10-08T09:53:32;11.90;97.90
46890;DHT22;32625;51.080;16.970;2023-10-08T09:56:13;11.90;93.60
46890;DHT22;32625;51.080;16.970;2023-10-08T09:58:45;12.00;92.30
46890;DHT22;32625;51.080;16.970;2023-10-08T10:01:13;12.00;93.80
46890;DHT22;32625;51.080;16.970;2023-10-08T10:03:40;12.00;90.60
46890;DHT22;32625;51.080;16.970;2023-10-08T10:06:14;12.10;90.50
46890;DHT22;32625;51.080;16.970;2023-10-08T10:08:43;12.10;90.50
46890;DHT22;32625;51.080;16.970;2023-10-08T10:11:10;12.10;87.20
46890;DHT22;32625;51.080;16.970;2023-10-08T10:13:45;12.00;87.00
46890;DHT22;32625;51.080;16.970;2023-10-08T10:16:21;12.00;86.20
46890;DHT22;32625;51.080;16.970;2023-10-08T10:18:55;12.10;86.40
46890;DHT22;32625;51.080;16.970;2023-10-08T10:21:31;12.10;86.10
46890;DHT22;32625;51.080;16.970;2023-10-08T10:24:00;12.20;86.10
46890;DHT22;32625;51.080;16.970;2023-10-08T10:31:38;12.30;83.10
46890;DHT22;32625;51.080;16.970;2023-10-08T10:34:08;12.20;79.10
46890;DHT22;32625;51.080;16.970;2023-10-08T10:36:39;12.20;77.40
46890;DHT22;32625;51.080;16.970;2023-10-08T10:39:08;12.20;75.40
46890;DHT22;32625;51.080;16.970;2023-10-08T10:42:02;12.20;77.90
46890;DHT22;32625;51.080;16.970;2023-10-08T10:44:31;12.20;78.60
46890;DHT22;32625;51.080;16.970;2023-10-08T10:46:59;12.30;80.10
46890;DHT22;32625;51.080;16.970;2023-10-08T10:49:49;12.40;80.40
46890;DHT22;32625;51.080;16.970;2023-10-08T10:52:24;12.40;81.80
46890;DHT22;32625;51.080;16.970;2023-10-08T10:55:12;12.40;80.20
46890;DHT22;32625;51.080;16.970;2023-10-08T11:00:24;12.50;78.70
46890;DHT22;32625;51.080;16.970;2023-10-08T11:03:01;12.60;78.90
46890;DHT22;32625;51.080;16.970;2023-10-08T11:05:46;12.70;74.50
46890;DHT22;32625;51.080;16.970;2023-10-08T11:08:15;12.60;73.80
46890;DHT22;32625;51.080;16.970;2023-10-08T11:10:47;12.70;74.00
46890;DHT22;32625;51.080;16.970;2023-10-08T11:13:25;12.70;74.80
46890;DHT22;32625;51.080;16.970;2023-10-08T11:16:03;12.80;74.00
46890;DHT22;32625;51.080;16.970;2023-10-08T11:18:31;12.80;74.00
46890;DHT22;32625;51.080;16.970;2023-10-08T11:21:10;12.90;74.50
46890;DHT22;32625;51.080;16.970;2023-10-08T11:23:44;12.80;73.80
46890;DHT22;32625;51.080;16.970;2023-10-08T11:26:20;12.90;72.30
46890;DHT22;32625;51.080;16.970;2023-10-08T11:28:59;12.90;69.30
46890;DHT22;32625;51.080;16.970;2023-10-08T11:31:32;12.80;68.70
46890;DHT22;32625;51.080;16.970;2023-10-08T11:34:03;12.90;69.60
46890;DHT22;32625;51.080;16.970;2023-10-08T11:36:36;12.90;67.70
46890;DHT22;32625;51.080;16.970;2023-10-08T11:39:16;12.80;68.40
46890;DHT22;32625;51.080;16.970;2023-10-08T11:42:00;12.80;69.40
46890;DHT22;32625;51.080;16.970;2023-10-08T11:44:51;12.80;71.10
46890;DHT22;32625;51.080;16.970;2023-10-08T11:47:19;12.90;70.50
46890;DHT22;32625;51.080;16.970;2023-10-08T11:49:48;13.00;70.80
46890;DHT22;32625;51.080;16.970;2023-10-08T11:52:27;13.00;68.70
46890;DHT22;32625;51.080;16.970;2023-10-08T11:54:55;13.00;68.40
46890;DHT22;32625;51.080;16.970;2023-10-08T11:57:22;13.10;67.90
46890;DHT22;32625;51.080;16.970;2023-10-08T11:59:50;13.10;69.80
46890;DHT22;32625;51.080;16.970;2023-10-08T12:02:21;13.10;66.10
46890;DHT22;32625;51.080;16.970;2023-10-08T12:04:49;13.00;65.00
46890;DHT22;32625;51.080;16.970;2023-10-08T12:07:16;13.00;64.90
46890;DHT22;32625;51.080;16.970;2023-10-08T12:09:45;12.90;64.60
46890;DHT22;32625;51.080;16.970;2023-10-08T12:12:16;13.00;66.70
46890;DHT22;32625;51.080;16.970;2023-10-08T12:14:45;13.10;66.10
46890;DHT22;32625;51.080;16.970;2023-10-08T12:17:14;13.10;67.40
46890;DHT22;32625;51.080;16.970;2023-10-08T12:19:43;13.20;67.60
46890;DHT22;32625;51.080;16.970;2023-10-08T12:22:12;13.20;68.20
46890;DHT22;32625;51.080;16.970;2023-10-08T12:24:44;13.20;65.10
46890;DHT22;32625;51.080;16.970;2023-10-08T12:27:11;13.20;64.50
46890;DHT22;32625;51.080;16.970;2023-10-08T12:29:39;13.10;63.90
46890;DHT22;32625;51.080;16.970;2023-10-08T12:32:06;13.10;66.20
46890;DHT22;32625;51.080;16.970;2023-10-08T12:34:44;13.10;64.90
46890;DHT22;32625;51.080;16.970;2023-10-08T12:37:11;13.20;66.60
46890;DHT22;32625;51.080;16.970;2023-10-08T12:39:41;13.20;66.10
46890;DHT22;32625;51.080;16.970;2023-10-08T12:42:26;13.20;67.00
46890;DHT22;32625;51.080;16.970;2023-10-08T12:44:53;13.20;67.70
46890;DHT22;32625;51.080;16.970;2023-10-08T12:47:24;13.10;67.60
46890;DHT22;32625;51.080;16.970;2023-10-08T12:49:56;13.10;67.50
46890;DHT22;32625;51.080;16.970;2023-10-08T12:52:24;12.90;66.10
46890;DHT22;32625;51.080;16.970;2023-10-08T12:54:55;12.90;67.90
46890;DHT22;32625;51.080;16.970;2023-10-08T12:57:25;12.90;67.30
46890;DHT22;32625;51.080;16.970;2023-10-08T12:59:59;12.90;67.00
46890;DHT22;32625;51.080;16.970;2023-10-08T13:02:26;13.00;66.70
46890;DHT22;32625;51.080;16.970;2023-10-08T13:04:55;13.10;65.40
46890;DHT22;32625;51.080;16.970;2023-10-08T13:07:24;13.10;65.70
46890;DHT22;32625;51.080;16.970;2023-10-08T13:09:53;13.10;66.60
46890;DHT22;32625;51.080;16.970;2023-10-08T13:12:20;13.10;67.40
46890;DHT22;32625;51.080;16.970;2023-10-08T13:14:47;13.10;67.10
46890;DHT22;32625;51.080;16.970;2023-10-08T13:17:15;13.10;66.80
46890;DHT22;32625;51.080;16.970;2023-10-08T13:19:42;13.10;65.10
46890;DHT22;32625;51.080;16.970;2023-10-08T13:22:09;13.10;66.20
46890;DHT22;32625;51.080;16.970;2023-10-08T13:24:36;12.90;64.00
46890;DHT22;32625;51.080;16.970;2023-10-08T13:27:03;12.90;64.90
46890;DHT22;32625;51.080;16.970;2023-10-08T13:29:33;13.00;65.60
46890;DHT22;32625;51.080;16.970;2023-10-08T13:32:00;13.00;65.30
46890;DHT22;32625;51.080;16.970;2023-10-08T13:34:28;13.00;65.70
46890;DHT22;32625;51.080;16.970;2023-10-08T13:36:55;13.00;67.30
46890;DHT22;32625;51.080;16.970;2023-10-08T13:39:23;12.90;66.60
46890;DHT22;32625;51.080;16.970;2023-10-08T13:41:50;12.90;67.70
46890;DHT22;32625;51.080;16.970;2023-10-08T13:44:19;13.00;67.30
46890;DHT22;32625;51.080;16.970;2023-10-08T13:46:57;13.00;68.40
46890;DHT22;32625;51.080;16.970;2023-10-08T13:49:25;13.10;68.70
46890;DHT22;32625;51.080;16.970;2023-10-08T13:51:59;13.10;68.00
46890;DHT22;32625;51.080;16.970;2023-10-08T13:54:26;13.10;66.90
46890;DHT22;32625;51.080;16.970;2023-10-08T13:56:57;13.10;66.50
46890;DHT22;32625;51.080;16.970;2023-10-08T13:59:26;13.10;67.60
46890;DHT22;32625;51.080;16.970;2023-10-08T14:01:53;13.10;67.50
46890;DHT22;32625;51.080;16.970;2023-10-08T14:04:21;13.10;66.60
46890;DHT22;32625;51.080;16.970;2023-10-08T14:06:58;13.10;67.10
46890;DHT22;32625;51.080;16.970;2023-10-08T14:09:25;13.10;65.40
46890;DHT22;32625;51.080;16.970;2023-10-08T14:11:59;13.10;65.90
46890;DHT22;32625;51.080;16.970;2023-10-08T14:14:28;13.10;68.30
46890;DHT22;32625;51.080;16.970;2023-10-08T14:17:01;13.00;65.10
46890;DHT22;32625;51.080;16.970;2023-10-08T14:19:38;13.00;64.00
46890;DHT22;32625;51.080;16.970;2023-10-08T14:22:19;13.00;65.00
46890;DHT22;32625;51.080;16.970;2023-10-08T14:24:49;13.10;66.20
46890;DHT22;32625;51.080;16.970;2023-10-08T14:27:26;13.10;66.00
46890;DHT22;32625;51.080;16.970;2023-10-08T14:30:00;13.00;65.20
46890;DHT22;32625;51.080;16.970;2023-10-08T14:32:33;13.00;65.80
46890;DHT22;32625;51.080;16.970;2023-10-08T14:35:00;12.90;68.20
46890;DHT22;32625;51.080;16.970;2023-10-08T14:37:46;12.90;66.70
46890;DHT22;32625;51.080;16.970;2023-10-08T14:40:34;12.80;64.90
46890;DHT22;32625;51.080;16.970;2023-10-08T14:43:20;12.90;64.90
46890;DHT22;32625;51.080;16.970;2023-10-08T14:45:50;12.80;64.90
46890;DHT22;32625;51.080;16.970;2023-10-08T14:48:19;12.90;66.00
46890;DHT22;32625;51.080;16.970;2023-10-08T14:50:47;12.90;67.50
46890;DHT22;32625;51.080;16.970;2023-10-08T14:53:16;12.90;65.40
46890;DHT22;32625;51.080;16.970;2023-10-08T14:55:42;12.90;65.70
46890;DHT22;32625;51.080;16.970;2023-10-08T14:58:09;12.90;67.30
46890;DHT22;32625;51.080;16.970;2023-10-08T15:00:38;12.80;65.00
46890;DHT22;32625;51.080;16.970;2023-10-08T15:03:06;12.90;65.50
46890;DHT22;32625;51.080;16.970;2023-10-08T15:05:35;12.80;66.40
46890;DHT22;32625;51.080;16.970;2023-10-08T15:08:07;12.80;66.20
46890;DHT22;32625;51.080;16.970;2023-10-08T15:10:37;12.80;68.90
46890;DHT22;32625;51.080;16.970;2023-10-08T15:13:04;12.80;71.00
46890;DHT22;32625;51.080;16.970;2023-10-08T15:15:31;12.80;73.60
46890;DHT22;32625;51.080;16.970;2023-10-08T15:18:01;12.70;68.90
46890;DHT22;32625;51.080;16.970;2023-10-08T15:20:29;12.60;68.20
46890;DHT22;32625;51.080;16.970;2023-10-08T15:22:59;12.60;67.80
46890;DHT22;32625;51.080;16.970;2023-10-08T15:25:26;12.60;71.00
46890;DHT22;32625;51.080;16.970;2023-10-08T15:27:54;12.50;71.10
46890;DHT22;32625;51.080;16.970;2023-10-08T15:30:21;12.50;71.60
46890;DHT22;32625;51.080;16.970;2023-10-08T15:32:49;12.40;71.00
46890;DHT22;32625;51.080;16.970;2023-10-08T15:35:18;12.50;71.50
46890;DHT22;32625;51.080;16.970;2023-10-08T15:37:51;12.40;71.00
46890;DHT22;32625;51.080;16.970;2023-10-08T15:40:18;12.40;72.10
46890;DHT22;32625;51.080;16.970;2023-10-08T15:42:54;12.30;73.20
46890;DHT22;32625;51.080;16.970;2023-10-08T15:45:23;12.30;75.00
46890;DHT22;32625;51.080;16.970;2023-10-08T15:47:51;12.20;73.30
46890;DHT22;32625;51.080;16.970;2023-10-08T15:50:19;12.20;75.40
46890;DHT22;32625;51.080;16.970;2023-10-08T15:52:49;12.20;77.20
46890;DHT22;32625;51.080;16.970;2023-10-08T15:55:17;12.00;78.80